Skip to main content

Amares Caldelas (CIM)

ID 6212122 · 41.6680, -8.3798 map

Latest reading · 2026-05-09 19:00 (Europe/Lisbon)

Temperature
13.1 °C
Humidity
88 %
Pressure
1,006.8 hPa
Precipitation
6.7 mm
Radiation
Wind speed
7.6 km/h
Wind direction
E · East

24-hour history

Time (Europe/Lisbon) Temp Humidity Pressure Rain Wind Dir
2026-05-09 19:00 13.1 °C 88 % 1,006.8 6.7 mm 7.6 km/h E
2026-05-09 18:00 14.0 °C 91 % 1,006.2 1.2 mm 9.4 km/h SE
2026-05-09 17:00 12.7 °C 95 % 1,006.4 0.1 mm 7.9 km/h NE
2026-05-09 16:00 14.2 °C 80 % 1,005.6 2.6 mm 3.2 km/h SE
2026-05-09 15:00 17.3 °C 68 % 1,004.5 0.0 mm 5.4 km/h S
2026-05-09 14:00 15.5 °C 91 % 1,005.0 0.5 mm 5.0 km/h NW
2026-05-09 13:00 15.2 °C 81 % 1,005.3 0.7 mm 5.8 km/h W
2026-05-09 12:00 15.9 °C 67 % 1,005.3 0.5 mm 11.2 km/h E
2026-05-09 11:00 17.4 °C 59 % 1,004.8 0.0 mm 7.9 km/h SE
2026-05-09 10:00 17.0 °C 60 % 1,004.9 0.0 mm 6.1 km/h SE
2026-05-09 09:00 16.1 °C 62 % 1,005.2 0.0 mm 11.2 km/h SE
2026-05-09 08:00 13.8 °C 74 % 1,005.3 0.0 mm 6.8 km/h E
2026-05-09 07:00 11.0 °C 95 % 1,005.5 0.0 mm 1.8 km/h SE
2026-05-09 06:00 11.3 °C 95 % 1,005.7 0.0 mm 2.9 km/h S
2026-05-09 05:00 11.9 °C 95 % 1,005.9 0.1 mm 2.5 km/h NW
2026-05-09 04:00 12.3 °C 92 % 1,006.1 0.0 mm 3.2 km/h SW
2026-05-09 03:00 13.1 °C 84 % 1,006.5 0.5 mm 2.9 km/h SE
2026-05-09 02:00 15.5 °C 62 % 1,006.8 0.0 mm 5.4 km/h SW
2026-05-09 01:00 16.8 °C 52 % 1,006.5 0.0 mm 4.3 km/h SE
2026-05-09 00:00 15.2 °C 60 % 1,007.0 0.0 mm 9.7 km/h SE
2026-05-08 23:00 12.9 °C 74 % 1,007.9 0.0 mm 2.9 km/h NE
2026-05-08 22:00 13.0 °C 76 % 1,008.3 0.0 mm 2.9 km/h NE
2026-05-08 21:00 14.7 °C 69 % 1,008.3 0.0 mm 2.9 km/h NE
2026-05-08 20:00 16.8 °C 62 % 1,008.4 0.0 mm 5.0 km/h E